createdAt,value
2019-05-03T00:02:12.299Z,3.83
2019-05-03T00:04:44.708Z,5.17
2019-05-03T00:07:15.378Z,2.47
2019-05-03T00:09:46.139Z,5.77
2019-05-03T00:12:16.695Z,2.87
2019-05-03T00:14:49.507Z,6.30
2019-05-03T00:17:21.778Z,3.23
2019-05-03T00:19:52.826Z,2.90
2019-05-03T00:22:23.516Z,3.90
2019-05-03T00:25:04.935Z,3.40
2019-05-03T00:30:15.504Z,3.00
2019-05-03T00:32:46.058Z,3.10
2019-05-03T00:35:22.586Z,3.43
2019-05-03T00:37:54.813Z,6.23
2019-05-03T00:40:28.953Z,4.77
2019-05-03T00:42:59.605Z,5.23
2019-05-03T00:45:31.601Z,4.67
2019-05-03T00:48:02.239Z,2.53
2019-05-03T00:50:32.782Z,3.17
2019-05-03T00:53:03.344Z,3.47
2019-05-03T00:55:33.910Z,3.07
2019-05-03T00:58:04.575Z,3.30
2019-05-03T01:00:35.121Z,3.40
2019-05-03T01:03:05.693Z,2.57
2019-05-03T01:05:36.236Z,2.70
2019-05-03T01:08:07.521Z,4.43
2019-05-03T01:10:38.078Z,3.50
2019-05-03T01:13:08.655Z,4.10
2019-05-03T01:15:49.266Z,4.80
2019-05-03T01:18:21.801Z,4.00
2019-05-03T01:20:52.482Z,3.93
2019-05-03T01:23:23.078Z,4.87
2019-05-03T01:25:53.616Z,3.37
2019-05-03T01:28:24.170Z,2.47
2019-05-03T01:30:54.743Z,3.90
2019-05-03T01:33:25.259Z,3.87
2019-05-03T01:35:55.827Z,4.30
2019-05-03T01:38:26.301Z,5.10
2019-05-03T01:40:56.871Z,3.77
2019-05-03T01:43:27.455Z,4.83
2019-05-03T01:45:57.996Z,4.37
2019-05-03T01:48:53.519Z,7.00
2019-05-03T01:51:45.988Z,2.23
2019-05-03T01:54:16.549Z,4.00
2019-05-03T01:56:56.777Z,4.47
2019-05-03T01:59:19.188Z,6.93
2019-05-03T02:02:08.249Z,3.33
2019-05-03T02:04:42.580Z,11.90
2019-05-03T02:07:13.137Z,6.60
2019-05-03T02:09:43.672Z,5.87
2019-05-03T02:12:14.252Z,4.83
2019-05-03T02:14:44.820Z,5.07
2019-05-03T02:17:15.380Z,6.77
2019-05-03T02:19:46.965Z,3.60
2019-05-03T02:22:17.542Z,5.30
2019-05-03T02:24:48.105Z,6.13
2019-05-03T02:27:18.586Z,8.07
2019-05-03T02:29:49.135Z,8.70
2019-05-03T02:32:23.228Z,5.03
2019-05-03T02:34:53.648Z,7.03
2019-05-03T02:37:24.257Z,5.17
2019-05-03T02:39:57.808Z,4.67
2019-05-03T02:42:28.392Z,4.43
2019-05-03T02:44:59.595Z,3.93
2019-05-03T02:47:49.033Z,2.90
2019-05-03T02:50:20.936Z,6.47
2019-05-03T02:55:35.921Z,8.20
2019-05-03T02:58:05.841Z,3.70
2019-05-03T03:01:01.837Z,5.20
2019-05-03T03:03:36.073Z,5.97
2019-05-03T03:06:06.993Z,5.13
2019-05-03T03:08:39.657Z,10.13
2019-05-03T03:11:10.184Z,5.40
2019-05-03T03:13:40.766Z,5.00
2019-05-03T03:16:11.623Z,5.17
2019-05-03T03:18:42.176Z,6.77
2019-05-03T03:21:16.437Z,6.07
2019-05-03T03:24:02.135Z,4.60
2019-05-03T03:26:38.002Z,8.17
2019-05-03T03:29:06.808Z,6.93
2019-05-03T03:32:19.631Z,5.63
2019-05-03T03:35:12.762Z,8.33
2019-05-03T03:37:42.762Z,4.27
2019-05-03T03:40:16.024Z,5.83
2019-05-03T03:42:48.390Z,6.00
2019-05-03T03:45:19.006Z,7.23
2019-05-03T03:47:56.471Z,7.07
2019-05-03T03:50:27.526Z,6.07
2019-05-03T03:52:59.801Z,6.97
2019-05-03T03:55:32.465Z,7.00
2019-05-03T06:06:00.799Z,11.07
2019-05-03T06:08:37.429Z,6.90
2019-05-03T06:11:27.179Z,7.17
2019-05-03T06:14:16.721Z,6.47
2019-05-03T06:16:56.006Z,5.80
2019-05-03T06:19:52.279Z,11.13
2019-05-03T06:22:47.526Z,8.13
2019-05-03T06:25:35.352Z,9.70
2019-05-03T06:28:19.940Z,10.07
2019-05-03T06:30:51.809Z,9.57
2019-05-03T06:33:24.351Z,9.63
2019-05-03T06:35:54.757Z,6.43
2019-05-03T06:38:25.452Z,10.93
2019-05-03T06:40:56.453Z,12.10
2019-05-03T06:43:27.049Z,10.90
2019-05-03T06:45:57.545Z,9.53
2019-05-03T06:48:31.856Z,11.47
2019-05-03T06:51:08.764Z,15.10
2019-05-03T06:53:34.522Z,15.27
2019-05-03T06:56:05.364Z,17.17
2019-05-03T06:58:36.605Z,16.40
2019-05-03T07:01:29.248Z,16.87
2019-05-03T07:04:07.697Z,17.27
2019-05-03T07:06:57.452Z,17.83
2019-05-03T07:09:35.481Z,19.13
2019-05-03T07:12:06.078Z,17.63
2019-05-03T07:14:36.649Z,16.70
2019-05-03T07:17:07.300Z,16.53
2019-05-03T07:19:38.126Z,14.57
2019-05-03T07:22:09.007Z,15.20
2019-05-03T07:24:40.846Z,12.97
2019-05-03T07:27:11.615Z,9.13
2019-05-03T07:29:42.179Z,12.67
2019-05-03T07:32:13.074Z,11.00
2019-05-03T07:34:45.314Z,14.00
2019-05-03T07:37:16.018Z,14.33
2019-05-03T07:39:46.697Z,12.03
2019-05-03T07:42:18.483Z,11.23
2019-05-03T07:44:50.200Z,6.83
2019-05-03T07:47:20.734Z,8.83
2019-05-03T07:49:51.655Z,6.07
2019-05-03T07:52:22.222Z,8.60
2019-05-03T07:54:52.799Z,5.33
2019-05-03T07:57:28.768Z,11.07
2019-05-03T07:59:59.283Z,3.50
2019-05-03T08:02:29.958Z,6.70
2019-05-03T08:05:00.584Z,7.07
2019-05-03T08:07:31.165Z,2.53
2019-05-03T08:10:01.779Z,6.50
2019-05-03T08:12:32.395Z,3.17
2019-05-03T08:15:05.260Z,8.87
2019-05-03T08:17:35.312Z,4.80
2019-05-03T08:20:06.046Z,3.53
2019-05-03T08:22:36.600Z,6.20
2019-05-03T08:25:07.732Z,1.73
2019-05-03T08:27:38.393Z,3.47
2019-05-03T08:30:11.248Z,8.47
2019-05-03T08:33:05.523Z,3.83
2019-05-03T08:35:41.526Z,4.33
2019-05-03T08:38:12.088Z,3.90
2019-05-03T08:40:47.602Z,4.40
2019-05-03T08:43:18.268Z,5.47
2019-05-03T08:45:49.390Z,3.30
2019-05-03T08:48:20.143Z,6.73
2019-05-03T08:50:50.697Z,9.70
2019-05-03T08:53:21.582Z,4.47
2019-05-03T08:55:52.370Z,9.17
2019-05-03T08:58:22.892Z,5.27
2019-05-03T09:00:54.682Z,6.23
2019-05-03T09:03:25.327Z,5.17
2019-05-03T09:05:56.467Z,3.57
2019-05-03T09:08:27.217Z,7.63
2019-05-03T09:11:05.829Z,6.37
2019-05-03T09:13:56.947Z,6.63
2019-05-03T09:16:27.495Z,7.17
2019-05-03T09:18:57.986Z,6.50
2019-05-03T09:21:28.553Z,2.93
2019-05-03T09:23:59.250Z,5.87
2019-05-03T09:26:29.858Z,4.80
2019-05-03T09:29:00.456Z,7.20
2019-05-03T09:31:31.031Z,7.30
2019-05-03T09:34:01.677Z,4.47
2019-05-03T09:36:34.377Z,6.63
2019-05-03T09:39:05.910Z,3.73
2019-05-03T09:41:36.482Z,4.53
2019-05-03T09:44:07.031Z,4.87
2019-05-03T09:46:37.605Z,10.20
2019-05-03T09:49:13.405Z,7.33
2019-05-03T09:51:40.754Z,8.03
2019-05-03T09:54:17.230Z,7.93
2019-05-03T09:57:00.352Z,7.90
2019-05-03T09:59:31.213Z,9.50
2019-05-03T10:02:04.729Z,13.33
2019-05-03T10:04:36.918Z,11.20
2019-05-03T10:07:07.437Z,9.97
2019-05-03T10:09:37.989Z,12.07
2019-05-03T10:12:12.663Z,9.00
2019-05-03T10:14:45.181Z,12.20
2019-05-03T10:17:45.595Z,12.17
2019-05-03T10:20:17.204Z,15.47
2019-05-03T10:22:48.184Z,14.83
2019-05-03T10:25:18.879Z,18.00
2019-05-03T10:27:49.675Z,22.30
2019-05-03T10:30:28.471Z,19.00
2019-05-03T10:33:08.147Z,20.93
2019-05-03T10:35:39.023Z,19.10
2019-05-03T10:38:09.834Z,14.70
2019-05-03T10:40:40.628Z,14.30
2019-05-03T10:43:11.664Z,14.53
2019-05-03T10:45:42.247Z,12.10
2019-05-03T10:48:15.268Z,6.90
2019-05-03T10:50:45.081Z,9.40
2019-05-03T10:53:35.632Z,7.73
2019-05-03T10:56:23.388Z,8.13
2019-05-03T10:58:57.693Z,8.87
2019-05-03T11:01:36.453Z,6.53
2019-05-03T11:04:07.324Z,10.80
2019-05-03T11:06:38.015Z,11.07
2019-05-03T11:09:09.229Z,12.03
2019-05-03T11:11:39.897Z,9.57
2019-05-03T11:14:10.554Z,10.63
2019-05-03T11:16:41.345Z,9.43
2019-05-03T11:19:12.003Z,7.83
2019-05-03T11:21:42.587Z,7.67
2019-05-03T11:27:00.035Z,10.17
2019-05-03T11:29:29.393Z,13.73
2019-05-03T11:32:19.400Z,13.50
2019-05-03T11:35:05.099Z,13.13
2019-05-03T11:37:45.250Z,15.23
2019-05-03T11:40:15.701Z,15.13
2019-05-03T11:42:48.033Z,11.00
2019-05-03T11:45:19.061Z,9.17
2019-05-03T11:47:49.678Z,11.07
2019-05-03T11:50:20.260Z,11.70
2019-05-03T11:52:50.866Z,13.50
2019-05-03T11:55:21.470Z,16.57
2019-05-03T11:57:52.048Z,15.50
2019-05-03T12:00:29.037Z,16.07
2019-05-03T12:03:22.475Z,17.63
2019-05-03T12:05:55.254Z,17.07
2019-05-03T12:08:25.908Z,14.13
2019-05-03T12:11:01.069Z,8.53
2019-05-03T12:13:32.291Z,6.57
2019-05-03T12:16:15.092Z,7.00
2019-05-03T12:18:48.962Z,5.37
2019-05-03T12:21:09.220Z,5.30
2019-05-03T12:23:40.353Z,6.23
2019-05-03T12:26:13.574Z,6.97
2019-05-03T12:28:45.523Z,5.87
2019-05-03T12:31:29.453Z,3.13
2019-05-03T12:33:48.232Z,3.47
2019-05-03T12:36:18.800Z,5.20
2019-05-03T12:38:49.361Z,7.20
2019-05-03T12:41:19.931Z,6.70
2019-05-03T12:43:50.523Z,6.73
2019-05-03T12:46:21.124Z,8.97
2019-05-03T12:48:51.708Z,8.33
2019-05-03T12:51:22.310Z,11.07
2019-05-03T12:53:55.043Z,10.00
2019-05-03T12:56:32.324Z,13.43
2019-05-03T12:59:16.520Z,10.63
2019-05-03T13:02:08.728Z,10.90
2019-05-03T13:04:39.744Z,12.87
2019-05-03T13:07:17.168Z,14.10
2019-05-03T13:09:47.712Z,11.93
2019-05-03T13:12:20.465Z,11.07
2019-05-03T13:14:51.079Z,10.73
2019-05-03T13:17:38.220Z,9.97
2019-05-03T13:20:10.390Z,12.37
2019-05-03T13:22:40.997Z,9.93
2019-05-03T13:25:12.136Z,11.03
2019-05-03T13:27:42.730Z,9.47
2019-05-03T13:30:16.579Z,7.80
2019-05-03T13:32:47.195Z,14.40
2019-05-03T13:38:06.715Z,10.50
2019-05-03T13:40:37.277Z,10.73
2019-05-03T13:43:07.985Z,12.20
2019-05-03T13:45:38.636Z,14.43
2019-05-03T13:48:09.240Z,10.43
2019-05-03T13:50:39.792Z,10.13
2019-05-03T13:53:10.366Z,11.67
2019-05-03T13:55:40.914Z,12.00
2019-05-03T13:58:11.493Z,13.17
2019-05-03T14:00:42.035Z,11.47
2019-05-03T14:03:12.630Z,13.60
2019-05-03T14:05:44.613Z,13.63
2019-05-03T14:08:15.769Z,15.70
2019-05-03T14:10:46.308Z,13.10
2019-05-03T14:13:16.898Z,12.80
2019-05-03T14:15:47.510Z,12.33
2019-05-03T14:18:18.062Z,14.13
2019-05-03T14:24:01.812Z,9.57
2019-05-03T14:26:32.404Z,12.73
2019-05-03T14:29:05.553Z,14.90
2019-05-03T14:34:17.673Z,13.63
2019-05-03T14:36:48.301Z,12.37
2019-05-03T14:39:18.847Z,12.13
2019-05-03T14:41:49.396Z,10.37
2019-05-03T14:44:19.992Z,13.07
2019-05-03T14:46:50.626Z,9.97
2019-05-03T14:49:21.258Z,13.90
2019-05-03T14:51:51.823Z,14.57
2019-05-03T14:54:24.935Z,9.13
2019-05-03T14:57:02.384Z,10.30
2019-05-03T14:59:54.849Z,11.17
2019-05-03T15:02:50.046Z,8.30
2019-05-03T15:05:16.516Z,9.07
2019-05-03T15:07:47.176Z,10.63
2019-05-03T15:10:17.829Z,6.80
2019-05-03T15:12:48.393Z,8.20
2019-05-03T15:15:20.027Z,11.93
2019-05-03T15:17:50.603Z,9.97
2019-05-03T15:20:21.549Z,9.17
2019-05-03T15:22:52.152Z,12.10
2019-05-03T15:25:24.921Z,11.90
2019-05-03T15:27:55.489Z,12.53
2019-05-03T15:30:26.104Z,14.27
2019-05-03T15:33:00.693Z,13.53
2019-05-03T15:38:24.649Z,16.07
2019-05-03T15:40:55.225Z,12.57
2019-05-03T15:43:35.000Z,17.93
2019-05-03T15:46:30.557Z,14.17
2019-05-03T15:51:37.016Z,11.80
2019-05-03T15:54:07.665Z,12.27
2019-05-03T15:56:38.289Z,11.77
2019-05-03T15:59:08.997Z,9.23
2019-05-03T16:01:39.517Z,10.97
2019-05-03T16:04:10.129Z,13.50
2019-05-03T16:06:40.734Z,14.97
2019-05-03T16:09:11.270Z,13.87
2019-05-03T16:11:41.843Z,12.97
2019-05-03T16:14:12.428Z,15.23
2019-05-03T16:16:44.994Z,13.10
2019-05-03T16:19:15.145Z,9.70
2019-05-03T16:21:45.746Z,14.53
2019-05-03T16:24:16.299Z,16.87
2019-05-03T16:27:05.016Z,13.77
2019-05-03T16:29:35.694Z,17.87
2019-05-03T16:32:06.276Z,17.37
2019-05-03T16:34:36.842Z,17.53
2019-05-03T16:37:07.447Z,14.63
2019-05-03T16:39:38.016Z,11.13
2019-05-03T16:42:10.157Z,13.87
2019-05-03T16:47:24.822Z,18.07
2019-05-03T16:49:55.022Z,16.73
2019-05-03T16:52:25.930Z,17.57
2019-05-03T16:54:58.450Z,16.53
2019-05-03T16:57:29.109Z,17.90
2019-05-03T16:59:59.706Z,19.90
2019-05-03T17:02:30.252Z,14.93
2019-05-03T17:05:07.694Z,13.87
2019-05-03T17:07:52.812Z,15.33
2019-05-03T17:10:30.600Z,15.17
2019-05-03T17:13:01.187Z,15.57
2019-05-03T17:15:31.932Z,14.13
2019-05-03T17:18:02.521Z,14.53
2019-05-03T17:20:34.717Z,17.43
2019-05-03T17:23:07.017Z,16.83
2019-05-03T17:25:38.942Z,17.50
2019-05-03T17:28:09.516Z,16.43
2019-05-03T17:30:40.096Z,13.70
2019-05-03T17:33:10.632Z,14.00
2019-05-03T17:35:41.219Z,16.40
2019-05-03T17:38:11.744Z,10.10
2019-05-03T17:41:04.318Z,13.83
2019-05-03T17:43:39.124Z,12.53
2019-05-03T17:46:10.448Z,9.47
2019-05-03T17:48:41.000Z,11.23
2019-05-03T17:51:14.959Z,8.20
2019-05-03T17:54:00.524Z,9.50
2019-05-03T17:56:48.472Z,7.43
2019-05-03T17:59:37.960Z,4.60
2019-05-03T18:02:26.058Z,2.93
2019-05-03T18:08:18.530Z,2.73
2019-05-03T18:10:55.360Z,2.43
2019-05-03T18:13:25.945Z,3.33
2019-05-03T18:15:56.459Z,2.60
2019-05-03T18:18:27.024Z,1.93
2019-05-03T18:20:57.603Z,3.63
2019-05-03T18:23:28.176Z,2.20
2019-05-03T18:25:58.743Z,2.60
2019-05-03T18:28:29.315Z,2.27
2019-05-03T18:30:59.883Z,3.97
2019-05-03T18:33:30.451Z,3.33
2019-05-03T18:36:01.004Z,4.20
2019-05-03T18:38:39.254Z,3.73
2019-05-03T18:41:12.016Z,4.07
2019-05-03T18:43:57.420Z,2.20
2019-05-03T18:46:34.354Z,4.20
2019-05-03T18:49:04.982Z,3.50
2019-05-03T18:54:17.831Z,3.07
2019-05-03T18:56:48.404Z,2.40
2019-05-03T18:59:18.989Z,3.23
2019-05-03T19:01:49.551Z,5.53
2019-05-03T19:04:38.022Z,2.23
2019-05-03T19:07:15.242Z,3.77
2019-05-03T19:09:53.274Z,1.70
2019-05-03T19:12:35.715Z,5.43
2019-05-03T19:15:06.387Z,2.97
2019-05-03T19:17:56.390Z,5.03
2019-05-03T19:20:26.960Z,2.00
2019-05-03T19:22:57.589Z,1.53
2019-05-03T19:25:28.124Z,1.70
2019-05-03T19:27:58.688Z,4.67
2019-05-03T19:30:30.460Z,20.13
2019-05-03T19:33:01.063Z,3.07
2019-05-03T19:35:31.612Z,2.63
2019-05-03T19:38:02.199Z,2.03
2019-05-03T19:40:32.767Z,3.40
2019-05-03T19:43:05.132Z,1.80
2019-05-03T19:45:35.523Z,1.93
2019-05-03T19:48:06.192Z,1.67
2019-05-03T19:50:36.896Z,2.27
2019-05-03T19:53:21.560Z,3.70
2019-05-03T19:55:52.169Z,4.27
2019-05-03T19:58:24.747Z,3.63
2019-05-03T20:01:14.779Z,2.30
2019-05-03T20:03:54.611Z,2.43
2019-05-03T20:06:50.621Z,5.63
2019-05-03T20:09:21.940Z,4.30
2019-05-03T20:11:52.574Z,3.60
2019-05-03T20:14:23.072Z,2.67
2019-05-03T20:16:54.986Z,4.30
2019-05-03T20:19:25.890Z,3.13
2019-05-03T20:21:56.615Z,2.67
2019-05-03T20:24:30.677Z,2.43
2019-05-03T20:27:00.543Z,3.77
2019-05-03T20:29:31.141Z,3.27
2019-05-03T20:32:01.676Z,3.43
2019-05-03T20:34:32.241Z,2.90
2019-05-03T20:37:02.802Z,3.67
2019-05-03T20:39:34.795Z,5.73
2019-05-03T20:42:05.586Z,4.73
2019-05-03T20:44:44.772Z,5.83
2019-05-03T20:47:25.368Z,3.93
2019-05-03T20:50:15.405Z,4.17
2019-05-03T20:52:45.782Z,6.30
2019-05-03T20:55:16.716Z,7.20
2019-05-03T20:57:47.352Z,3.00
2019-05-03T21:00:20.906Z,4.27
2019-05-03T21:02:54.734Z,6.33
2019-05-03T21:08:14.844Z,3.73
2019-05-03T21:10:45.627Z,2.97
2019-05-03T21:13:16.216Z,2.80
2019-05-03T21:16:09.455Z,5.43
2019-05-03T21:18:48.891Z,4.30
2019-05-03T21:21:44.984Z,4.50
2019-05-03T21:24:24.202Z,2.80
2019-05-03T21:26:55.590Z,2.87
2019-05-03T21:29:26.067Z,3.30
2019-05-03T21:31:56.626Z,3.20
2019-05-03T21:34:27.248Z,3.67
2019-05-03T21:36:57.826Z,3.90
2019-05-03T21:39:28.439Z,3.07
2019-05-03T21:41:59.030Z,5.73
2019-05-03T21:44:33.704Z,4.17
2019-05-03T21:47:17.051Z,3.80
2019-05-03T21:49:47.673Z,3.40
2019-05-03T21:52:18.214Z,3.80
2019-05-03T21:54:48.820Z,5.40
2019-05-03T21:57:19.369Z,4.57
2019-05-03T21:59:50.923Z,3.60
2019-05-03T22:02:22.082Z,5.17
2019-05-03T22:04:52.700Z,3.87
2019-05-03T22:07:26.514Z,6.57
2019-05-03T22:09:55.500Z,6.57
2019-05-03T22:12:26.066Z,6.70
2019-05-03T22:15:06.088Z,3.90
2019-05-03T22:18:10.529Z,4.10
2019-05-03T22:21:08.638Z,6.67
2019-05-03T22:24:04.478Z,9.10
2019-05-03T22:26:52.792Z,8.73
2019-05-03T22:29:25.483Z,7.87
2019-05-03T22:31:55.608Z,14.80
2019-05-03T22:37:16.669Z,11.13
2019-05-03T22:39:47.742Z,14.27
2019-05-03T22:42:19.386Z,19.03
2019-05-03T22:44:49.998Z,16.67
2019-05-03T22:47:20.629Z,14.60
2019-05-03T22:49:51.289Z,14.97
2019-05-03T22:52:22.035Z,14.83
2019-05-03T22:54:52.633Z,16.13
2019-05-03T22:57:24.579Z,14.90
2019-05-03T22:59:55.242Z,13.73
2019-05-03T23:02:25.853Z,20.53
2019-05-03T23:04:56.422Z,17.17
2019-05-03T23:07:27.038Z,18.20
2019-05-03T23:09:57.660Z,17.40
2019-05-03T23:12:28.217Z,18.23
2019-05-03T23:14:58.849Z,16.83
2019-05-03T23:17:29.433Z,19.00
2019-05-03T23:20:06.055Z,17.57
2019-05-03T23:22:36.646Z,19.10
2019-05-03T23:25:07.428Z,20.67
2019-05-03T23:27:38.025Z,18.77
2019-05-03T23:30:08.724Z,19.13
2019-05-03T23:32:39.403Z,19.40
2019-05-03T23:35:10.036Z,21.37
2019-05-03T23:37:40.682Z,20.33
2019-05-03T23:40:11.501Z,22.90
2019-05-03T23:42:42.146Z,22.43
2019-05-03T23:45:14.792Z,21.70
2019-05-03T23:50:35.353Z,23.87
2019-05-03T23:53:06.012Z,23.13
2019-05-03T23:55:42.523Z,24.40
2019-05-03T23:58:13.164Z,23.00
